Weather observations for the past three days for
Clinton, MO
Imperial (Metric)
Date Time (cdt) Wind (mph) Vis. (mi.) Weather Sky Cond. Temperature (ºF) Relative Humidity Wind Chill (°F) Heat Index (°F) Pressure Precipitation (in)
Air Dwpt 6 hour altimeter (in) sea level (mb) 1 hr 3 hr 6 hr
Max. Min.
01 16:15 S 10 10.00 A Few Clouds FEW085 98.6 62.6 31% 100 29.96 0.0
01 15:55 SW 5 10.00 Fair CLR 98.6 60.8 29% 99 29.96 0.0
01 15:35 W 9 10.00 Fair CLR 100.4 62.6 29% 102 29.97 0.0
01 15:15 SW 9 G 16 10.00 Fair CLR 100.4 62.6 29% 102 29.98 0.0
01 14:55 SW 8 10.00 Fair CLR 100.4 60.8 27% 101 29.98 0.0
01 14:35 Vrbl 6 G 12 10.00 Fair CLR 98.6 62.6 31% 100 29.99 0.0
01 14:15 SW 5 10.00 A Few Clouds FEW080 100.4 62.6 29% 102 29.99 0.0
01 13:55 Calm 10.00 Fair CLR 98.6 62.6 31% 100 30 0.0
01 13:35 W 7 10.00 Fair CLR 98.6 64.4 33% 101 30.01 0.0
01 13:15 W 9 G 15 10.00 Fair CLR 98.6 64.4 33% 101 30.01 0.0
01 12:55 S 8 10.00 Fair CLR 98.6 64.4 33% 101 30.02 0.0 0.02
01 12:35 SW 9 10.00 Fair CLR 96.8 66.2 37% 100 30.03 0.0
01 12:15 SW 8 9.00 Fair CLR 96.8 66.2 37% 100 30.03 0.0
01 11:55 SW 7 G 14 9.00 Fair CLR 95 68 41% 100 30.04 0.0
01 11:35 SW 12 9.00 Fair CLR 95 66.2 39% 98 30.05 0.0
01 11:15 SW 13 9.00 Fair CLR 93.2 68 44% 98 30.05 0.0
01 10:55 SW 10 10.00 Fair CLR 91.4 68 46% 96 30.05 0.0
01 10:35 SW 12 G 17 9.00 Fair CLR 91.4 66.2 44% 94 30.05 0.0
01 10:15 SW 12 10.00 Fair CLR 89.6 66.2 46% 92 30.05 0.0
01 09:55 SW 10 9.00 Fair CLR 87.8 66.2 49% 90 30.05 0.0
01 09:35 SW 8 9.00 Fair CLR 86 66.2 52% 88 30.05 0.0
01 09:15 SW 8 10.00 Fair CLR 82.4 66.2 58% 85 30.06 0.0
01 08:55 SW 7 9.00 A Few Clouds FEW095 82.4 66.2 58% 85 30.06 0.0
01 08:35 S 6 10.00 Fair CLR 80.6 66.2 62% 83 30.06 0.0
01 08:15 SW 5 9.00 Fair CLR 77 66.2 69% 79 30.06 0.0
01 07:55 S 3 9.00 A Few Clouds FEW090 77 66.2 69% 79 30.05 0.0
01 07:35 S 5 9.00 Partly Cloudy SCT090 75.2 66.2 74% 77 30.05 0.0
01 07:15 S 5 9.00 A Few Clouds FEW090 75.2 64.4 69% 77 30.04 0.0
01 06:35 S 5 10.00 Fair CLR 75.2 64.4 69% 77 30.02 0.0
01 06:15 S 6 10.00 Fair CLR 75.2 64.4 69% 77 30.02 0.0
01 05:55 S 6 10.00 Fair CLR 75.2 64.4 69% 77 30.01 0.0
01 05:35 S 6 10.00 Fair CLR 77 64.4 65% 79 30.01 0.0
01 05:15 S 5 10.00 Fair CLR 77 64.4 65% 79 30.01 0.0
01 04:55 S 6 10.00 Fair CLR 77 64.4 65% 79 30 0.0
01 04:35 S 6 10.00 Fair CLR 77 64.4 65% 79 30 0.0
01 04:15 S 5 10.00 Fair CLR 78.8 64.4 61% 81 30 0.0
01 03:55 S 5 10.00 Fair CLR 77 64.4 65% 79 30 0.0
01 03:35 S 5 10.00 Fair CLR 78.8 64.4 61% 81 30 0.0
01 03:15 S 6 10.00 Fair CLR 78.8 64.4 61% 81 29.99 0.0
01 02:55 S 6 10.00 Fair CLR 78.8 64.4 61% 81 29.99 0.0
01 02:35 S 5 10.00 Fair CLR 78.8 64.4 61% 81 29.99 0.0
01 02:15 S 6 10.00 Fair CLR 78.8 64.4 61% 81 29.99 0.0
01 01:55 S 6 10.00 Fair CLR 80.6 64.4 58% 82 29.99 0.0
01 01:35 S 7 10.00 Fair CLR 80.6 64.4 58% 82 29.99 0.0
01 01:15 S 7 10.00 Fair CLR 80.6 64.4 58% 82 30 0.0
01 00:55 S 7 10.00 Fair CLR 78.8 64.4 61% 81 30 0.0
01 00:35 S 6 10.00 Fair CLR 80.6 64.4 58% 82 29.99 0.0
01 00:15 S 6 10.00 Fair CLR 78.8 64.4 61% 81 29.99 0.0
31 23:55 S 5 10.00 Fair CLR 80.6 62.6 54% 82 29.98 0.0
31 23:35 S 5 10.00 Fair CLR 78.8 64.4 61% 81 29.98 0.0
31 23:15 S 5 10.00 Fair CLR 78.8 62.6 58% 80 29.98 0.0
31 22:55 SE 5 9.00 Fair CLR 80.6 62.6 54% 82 29.98 0.0
31 22:35 SE 6 8.00 Fair CLR 75.2 64.4 69% 77 29.98 0.0
31 22:15 Calm 9.00 Fair CLR 75.2 66.2 74% 77 29.97 0.0
31 21:55 Calm 10.00 Fair CLR 77 68 74% 79 29.97 0.0
31 21:35 Calm 10.00 Fair CLR 77 66.2 69% 79 29.97 0.0
31 21:15 Calm 9.00 Fair CLR 78.8 66.2 65% 81 29.97 0.0
31 20:55 Calm 10.00 Fair CLR 80.6 64.4 58% 82 29.96 0.0
31 20:35 Calm 10.00 Fair CLR 82.4 64.4 55% 84 29.95 0.0
31 20:15 Calm 9.00 Fair CLR 82.4 64.4 55% 84 29.95 0.0
31 19:55 Calm 9.00 Fair CLR 91.4 62.6 38% 92 29.95 0.0
31 19:35 Calm 10.00 Fair CLR 93.2 60.8 34% 93 29.94 0.0
31 19:15 S 3 10.00 Fair CLR 95 60.8 32% 95 29.94 0.0
31 18:35 SW 5 10.00 Fair CLR 98.6 60.8 29% 99 29.94 0.0
31 18:15 S 8 9.00 Fair CLR 98.6 59 27% 98 29.93 0.0
31 17:55 S 7 10.00 Fair CLR 100.4 59 25% 100 29.93 0.0
31 17:35 S 10 10.00 Fair CLR 100.4 59 25% 100 29.93 0.0
31 17:15 SW 7 G 13 10.00 Fair CLR 100.4 60.8 27% 101 29.94 0.0
31 16:55 SW 9 10.00 Fair CLR 102.2 62.6 27% 104 29.94 0.0
31 16:35 SW 6 G 12 10.00 Fair CLR 102.2 60.8 26% 103 29.94 0.0
31 16:15 SW 10 9.00 Fair CLR 102.2 62.6 27% 104 29.94 0.0
31 15:55 S 9 10.00 Fair CLR 102.2 62.6 27% 104 29.94 0.0
31 15:35 S 9 G 15 10.00 Fair CLR 102.2 62.6 27% 104 29.95 0.0
31 15:15 S 9 G 15 9.00 Fair CLR 102.2 60.8 26% 103 29.95 0.0
31 14:55 SW 12 10.00 Fair CLR 100.4 62.6 29% 102 29.96 0.0
31 14:35 SW 12 G 18 10.00 Fair CLR 100.4 62.6 29% 102 29.97 0.0
31 14:15 SW 12 G 18 10.00 Fair CLR 100.4 62.6 29% 102 29.97 0.0
31 13:55 SW 12 G 18 9.00 Fair CLR 100.4 62.6 29% 102 29.98 0.0
31 13:35 SW 12 G 21 9.00 Fair CLR 100.4 62.6 29% 102 29.98 0.0
31 13:15 SW 13 10.00 Fair CLR 98.6 62.6 31% 100 29.99 0.0
31 12:55 SW 14 10.00 Fair CLR 98.6 62.6 31% 100 30 0.0
31 12:35 SW 14 G 21 9.00 Fair CLR 98.6 64.4 33% 101 30 0.0
31 12:15 SW 10 G 20 9.00 Fair CLR 96.8 64.4 34% 99 30.01 0.0
31 11:55 SW 12 9.00 Fair CLR 96.8 64.4 34% 99 30.01 0.0
31 11:35 SW 10 G 17 9.00 Fair CLR 95 66.2 39% 98 30.02 0.0
31 11:15 SW 10 9.00 Fair CLR 93.2 66.2 41% 96 30.02 0.0
31 10:55 SW 10 9.00 Fair CLR 91.4 66.2 44% 94 30.02 0.0
31 10:35 SW 13 9.00 Fair CLR 89.6 64.4 43% 91 30.02 0.0
31 10:15 SW 14 9.00 Fair CLR 87.8 64.4 46% 89 30.02 0.0
31 09:55 SW 13 G 20 9.00 Fair CLR 87.8 64.4 46% 89 30.02 0.0
31 09:35 SW 10 G 17 9.00 Fair CLR 86 64.4 49% 87 30.02 0.0
31 09:15 SW 13 G 22 9.00 Fair CLR 84.2 64.4 51% 86 30.02 0.0
31 08:55 SW 10 G 16 10.00 Fair CLR 82.4 64.4 55% 84 30.02 0.0
31 08:35 S 9 9.00 Fair CLR 80.6 64.4 58% 82 30.02 0.0
31 08:15 S 9 9.00 Fair CLR 78.8 64.4 61% 81 30.02 0.0
31 07:55 S 7 9.00 Fair CLR 77 64.4 65% 79 30.01 0.0
31 07:35 S 6 9.00 Fair CLR 77 64.4 65% 79 30.01 0.0
31 07:15 S 6 9.00 Fair CLR 75.2 62.6 65% 77 30 0.0
31 06:55 S 7 9.00 Fair CLR 75.2 62.6 65% 77 29.98 0.0
31 06:35 S 6 10.00 Fair CLR 75.2 62.6 65% 77 29.98 0.0
31 06:15 S 5 9.00 Fair CLR 75.2 62.6 65% 77 29.98 0.0
31 05:55 S 7 10.00 Fair CLR 75.2 64.4 69% 77 29.98 0.0
31 05:35 S 6 10.00 Fair CLR 75.2 62.6 65% 77 29.97 0.0
31 05:15 S 6 10.00 Fair CLR 75.2 62.6 65% 77 29.97 0.0
31 04:55 S 6 10.00 Fair CLR 77 64.4 65% 79 29.97 0.0
31 04:35 S 7 10.00 Fair CLR 77 64.4 65% 79 29.96 0.0
31 04:15 S 7 10.00 Fair CLR 78.8 64.4 61% 81 29.96 0.0
31 03:55 S 8 10.00 Fair CLR 78.8 64.4 61% 81 29.96 0.0
31 03:35 S 7 10.00 Fair CLR 78.8 64.4 61% 81 29.96 0.0
31 03:15 S 7 G 14 10.00 Fair CLR 80.6 64.4 58% 82 29.95 0.0
31 02:55 S 7 G 14 10.00 Fair CLR 80.6 64.4 58% 82 29.95 0.0
31 02:35 S 10 10.00 Fair CLR 80.6 64.4 58% 82 29.95 0.0
31 02:15 S 8 10.00 Fair CLR 80.6 64.4 58% 82 29.95 0.0
31 01:55 S 9 10.00 Fair CLR 80.6 64.4 58% 82 29.95 0.0
31 01:35 S 10 10.00 Fair CLR 80.6 64.4 58% 82 29.95 0.0
31 01:15 S 8 10.00 Fair CLR 80.6 64.4 58% 82 29.95 0.0
31 00:55 S 8 10.00 Fair CLR 80.6 64.4 58% 82 29.94 0.0
31 00:35 S 8 10.00 Fair CLR 80.6 64.4 58% 82 29.94 0.0
31 00:15 S 8 10.00 Fair CLR 80.6 64.4 58% 82 29.94 0.0
30 23:55 S 6 10.00 Fair CLR 82.4 64.4 55% 84 29.94 0.0
30 23:35 S 7 10.00 Fair CLR 82.4 64.4 55% 84 29.93 0.0
30 23:15 S 7 10.00 Fair CLR 82.4 64.4 55% 84 29.93 0.0
30 22:55 S 7 10.00 Fair CLR 82.4 64.4 55% 84 29.93 0.0
30 22:35 S 7 10.00 Fair CLR 82.4 64.4 55% 84 29.93 0.0
30 22:15 S 7 10.00 Fair CLR 80.6 64.4 58% 82 29.93 0.0
30 21:55 S 6 10.00 Fair CLR 82.4 64.4 55% 84 29.93 0.0
30 21:35 S 7 10.00 Fair CLR 82.4 64.4 55% 84 29.93 0.0
30 21:15 S 6 10.00 Fair CLR 84.2 64.4 51% 86 29.92 0.0
30 20:55 S 7 9.00 Fair CLR 84.2 62.6 48% 85 29.91 0.0
30 20:35 SE 6 10.00 Fair CLR 86 62.6 46% 87 29.9 0.0
30 20:15 S 7 9.00 Fair CLR 86 62.6 46% 87 29.89 0.0
30 19:55 S 7 10.00 Fair CLR 87.8 62.6 43% 88 29.88 0.0
30 19:35 S 6 9.00 Fair CLR 89.6 62.6 41% 90 29.89 0.0
30 19:15 S 7 9.00 Fair CLR 93.2 62.6 36% 94 29.89 0.0
30 18:55 S 8 9.00 Fair CLR 95 60.8 32% 95 29.89 0.0
30 18:35 S 12 10.00 Fair CLR 96.8 60.8 30% 97 29.89 0.0
30 18:15 S 10 G 18 10.00 Fair CLR 96.8 59 28% 96 29.89 0.0
30 17:55 S 10 G 18 9.00 Fair CLR 98.6 60.8 29% 99 29.89 0.0
30 17:35 S 12 9.00 Fair CLR 98.6 60.8 29% 99 29.89 0.0
30 17:15 S 10 9.00 Fair CLR 98.6 60.8 29% 99 29.89 0.0
30 16:55 S 13 G 20 10.00 Fair CLR 100.4 60.8 27% 101 29.9 0.0
30 16:35 S 9 10.00 Fair CLR 100.4 62.6 29% 102 29.9 0.0
30 16:15 SW 9 G 17 9.00 Fair CLR 100.4 62.6 29% 102 29.9 0.0
30 15:55 S 12 10.00 Fair CLR 100.4 62.6 29% 102 29.91 0.0
30 15:35 S 9 G 16 9.00 Fair CLR 100.4 62.6 29% 102 29.91 0.0
30 15:15 S 10 G 21 9.00 Fair CLR 98.6 62.6 31% 100 29.92 0.0
30 14:55 SW 12 9.00 Fair CLR 98.6 62.6 31% 100 29.93 0.0
30 14:35 S 14 G 20 9.00 Fair CLR 98.6 62.6 31% 100 29.93 0.0
30 14:15 S 13 G 18 9.00 Fair CLR 98.6 62.6 31% 100 29.94 0.0
30 13:55 S 9 G 18 9.00 Fair CLR 98.6 62.6 31% 100 29.94 0.0
30 13:35 S 13 10.00 Fair CLR 96.8 62.6 32% 98 29.95 0.0
30 13:15 S 10 9.00 Fair CLR 96.8 62.6 32% 98 29.95 0.0
30 12:55 SW 14 9.00 Fair CLR 93.2 62.6 36% 94 29.96 0.0
30 12:35 S 13 9.00 Fair CLR 93.2 62.6 36% 94 29.97 0.0
30 12:15 SW 9 G 16 10.00 Fair CLR 91.4 62.6 38% 92 29.97 0.0
30 11:55 S 10 9.00 Fair CLR 91.4 62.6 38% 92 29.98 0.0
30 11:35 S 13 G 21 9.00 Fair CLR 93.2 62.6 36% 94 29.98 0.0
30 11:15 S 15 G 21 9.00 Fair CLR 91.4 62.6 38% 92 29.98 0.0
30 10:55 SW 12 G 17 9.00 Fair CLR 89.6 62.6 41% 90 29.98 0.0
30 10:35 S 10 G 18 9.00 Fair CLR 87.8 60.8 40% 88 29.98 0.0
30 10:15 S 12 G 20 9.00 Fair CLR 86 60.8 43% 86 29.98 0.0
30 09:55 S 13 G 20 10.00 Fair CLR 86 60.8 43% 86 29.98 0.0
30 09:35 S 13 G 21 9.00 Fair CLR 84.2 60.8 45% 84 29.98 0.0
30 09:15 S 12 G 17 10.00 Fair CLR 82.4 60.8 48% 83 29.98 0.0
30 08:55 S 10 G 16 9.00 Fair CLR 80.6 60.8 51% 81 29.98 0.0
30 08:35 S 9 9.00 Fair CLR 78.8 60.8 54% 80 29.99 0.0
30 08:15 S 7 G 14 9.00 Fair CLR 77 60.8 57% 79 29.99 0.0
30 07:55 S 7 9.00 Fair CLR 77 60.8 57% 79 29.99 0.0
30 07:35 S 8 10.00 Fair CLR 75.2 60.8 61% 77 29.99 0.0
30 07:15 S 7 10.00 Fair CLR 75.2 60.8 61% 77 29.98 0.0
30 06:55 S 7 10.00 Fair CLR 73.4 60.8 65% 29.98 0.0
30 06:35 S 7 10.00 Fair CLR 73.4 60.8 65% 29.98 0.0
30 06:15 S 6 10.00 Fair CLR 73.4 60.8 65% 29.98 0.0
30 05:55 S 7 10.00 Fair CLR 75.2 60.8 61% 77 29.98 0.0
30 05:35 S 7 10.00 Fair CLR 75.2 60.8 61% 77 29.98 0.0
30 05:15 S 8 10.00 Fair CLR 75.2 60.8 61% 77 29.97 0.0
30 04:55 S 6 10.00 Fair CLR 75.2 60.8 61% 77 29.97 0.0
30 04:35 S 8 G 14 10.00 Fair CLR 77 60.8 57% 79 29.97 0.0
30 04:15 S 9 10.00 Fair CLR 77 60.8 57% 79 29.96 0.0
30 03:55 S 8 10.00 Fair CLR 77 60.8 57% 79 29.97 0.0
30 03:35 S 8 10.00 Fair CLR 77 60.8 57% 79 29.96 0.0
30 03:15 S 8 10.00 Fair CLR 77 60.8 57% 79 29.96 0.0
30 02:55 S 8 10.00 Fair CLR 77 60.8 57% 79 29.96 0.0
30 02:35 S 8 10.00 Fair CLR 77 60.8 57% 79 29.96 0.0
30 02:15 S 8 10.00 Fair CLR 77 60.8 57% 79 29.97 0.0
30 01:55 S 7 10.00 Fair CLR 77 60.8 57% 79 29.97 0.0
30 01:35 S 8 10.00 Fair CLR 77 60.8 57% 79 29.97 0.0
30 01:15 S 8 10.00 Fair CLR 78.8 60.8 54% 80 29.97 0.0
30 00:55 S 9 9.00 Fair CLR 78.8 59 51% 80 29.97 0.0
30 00:35 S 9 10.00 Fair CLR 78.8 59 51% 80 29.97 0.0
30 00:15 S 12 10.00 Fair CLR 80.6 59 48% 81 29.97 0.0
29 23:55 S 9 10.00 Fair CLR 80.6 59 48% 81 29.97 0.0
29 23:35 S 8 10.00 Fair CLR 80.6 60.8 51% 81 29.97 0.0
29 23:15 S 8 G 14 10.00 Fair CLR 80.6 60.8 51% 81 29.97 0.0
29 22:55 S 10 10.00 Fair CLR 82.4 60.8 48% 83 29.97 0.0
29 22:35 S 8 10.00 Fair CLR 82.4 62.6 51% 83 29.97 0.0
29 22:15 S 9 10.00 Fair CLR 80.6 60.8 51% 81 29.96 0.0
29 21:55 S 8 9.00 Fair CLR 80.6 62.6 54% 82 29.96 0.0
29 21:35 S 7 10.00 Fair CLR 80.6 62.6 54% 82 29.96 0.0
29 21:15 SE 6 10.00 Fair CLR 78.8 62.6 58% 80 29.96 0.0
29 20:55 SE 5 9.00 Fair CLR 80.6 62.6 54% 82 29.95 0.0
29 20:35 SE 5 9.00 Fair CLR 82.4 62.6 51% 83 29.94 0.0
29 20:15 SE 6 9.00 Fair CLR 82.4 62.6 51% 83 29.94 0.0
29 19:55 SE 5 9.00 Fair CLR 84.2 62.6 48% 85 29.93 0.0
29 19:35 SE 6 10.00 Fair CLR 87.8 60.8 40% 88 29.93 0.0
29 19:15 S 7 10.00 Fair CLR 89.6 60.8 38% 90 29.93 0.0
29 18:55 S 7 G 15 10.00 Fair CLR 93.2 60.8 34% 93 29.93 0.0
29 18:35 S 9 9.00 Fair CLR 93.2 59 32% 93 29.93 0.0
29 18:15 S 12 9.00 Fair CLR 95 59 30% 94 29.93 0.0
29 17:55 S 8 G 16 9.00 Fair CLR 95 60.8 32% 95 29.93 0.0
29 17:35 S 9 G 15 10.00 Fair CLR 95 59 30% 94 29.94 0.0
29 17:15 S 9 9.00 Fair CLR 96.8 59 28% 96 29.94 0.0
29 16:55 S 8 10.00 Fair CLR 95 60.8 32% 95 29.95 0.0
29 16:35 S 13 9.00 Fair CLR 96.8 59 28% 96 29.95 0.0
Date Time (cdt) Wind (mph) Vis. (mi.) Weather Sky Cond. Air Dwpt Max. Min. Relative Humidity Wind Chill (°F) Heat Index (°F) altimeter (in) sea level (mb) 1 hr 3 hr 6 hr
6 hour
Temperature (ºF) Pressure Precipitation (in)